sensor_id;sensor_type;location;lat;lon;timestamp;P1;durP1;ratioP1;P2;durP2;ratioP2
4527;SDS011;62320;51.520;6.818;2023-02-24T00:03:38;13.43;;;2.85;;
4527;SDS011;62320;51.520;6.818;2023-02-24T00:13:45;16.57;;;3.17;;
4527;SDS011;62320;51.520;6.818;2023-02-24T00:23:47;17.63;;;2.90;;
4527;SDS011;62320;51.520;6.818;2023-02-24T00:33:48;14.52;;;2.65;;
4527;SDS011;62320;51.520;6.818;2023-02-24T00:43:50;14.00;;;2.73;;
4527;SDS011;62320;51.520;6.818;2023-02-24T00:53:53;9.70;;;2.27;;
4527;SDS011;62320;51.520;6.818;2023-02-24T01:03:59;12.35;;;2.90;;
4527;SDS011;62320;51.520;6.818;2023-02-24T01:14:12;11.90;;;3.00;;
4527;SDS011;62320;51.520;6.818;2023-02-24T01:24:16;17.67;;;3.43;;
4527;SDS011;62320;51.520;6.818;2023-02-24T01:34:18;15.43;;;3.65;;
4527;SDS011;62320;51.520;6.818;2023-02-24T01:54:26;12.97;;;3.67;;
4527;SDS011;62320;51.520;6.818;2023-02-24T02:04:33;21.23;;;5.03;;
4527;SDS011;62320;51.520;6.818;2023-02-24T02:14:40;18.50;;;5.22;;
4527;SDS011;62320;51.520;6.818;2023-02-24T02:25:22;20.70;;;4.87;;
4527;SDS011;62320;51.520;6.818;2023-02-24T02:35:46;14.70;;;4.73;;
4527;SDS011;62320;51.520;6.818;2023-02-24T03:06:30;21.33;;;5.90;;
4527;SDS011;62320;51.520;6.818;2023-02-24T03:16:32;16.45;;;4.97;;
4527;SDS011;62320;51.520;6.818;2023-02-24T03:26:42;17.88;;;4.80;;
4527;SDS011;62320;51.520;6.818;2023-02-24T03:36:45;21.87;;;6.00;;
4527;SDS011;62320;51.520;6.818;2023-02-24T03:46:47;19.63;;;6.20;;
4527;SDS011;62320;51.520;6.818;2023-02-24T03:56:54;19.33;;;5.68;;
4527;SDS011;62320;51.520;6.818;2023-02-24T04:07:45;18.50;;;5.57;;
4527;SDS011;62320;51.520;6.818;2023-02-24T04:18:01;15.57;;;3.60;;
4527;SDS011;62320;51.520;6.818;2023-02-24T04:28:07;12.32;;;3.63;;
4527;SDS011;62320;51.520;6.818;2023-02-24T04:38:10;13.73;;;2.50;;
4527;SDS011;62320;51.520;6.818;2023-02-24T04:48:12;10.30;;;2.10;;
4527;SDS011;62320;51.520;6.818;2023-02-24T04:58:15;10.95;;;2.72;;
4527;SDS011;62320;51.520;6.818;2023-02-24T05:08:19;10.95;;;2.28;;
4527;SDS011;62320;51.520;6.818;2023-02-24T05:18:20;11.63;;;2.67;;
4527;SDS011;62320;51.520;6.818;2023-02-24T05:28:24;10.97;;;2.90;;
4527;SDS011;62320;51.520;6.818;2023-02-24T05:38:26;14.00;;;3.22;;
4527;SDS011;62320;51.520;6.818;2023-02-24T05:48:27;13.40;;;3.33;;
4527;SDS011;62320;51.520;6.818;2023-02-24T05:58:29;10.13;;;3.00;;
4527;SDS011;62320;51.520;6.818;2023-02-24T06:08:31;10.30;;;2.80;;
4527;SDS011;62320;51.520;6.818;2023-02-24T06:18:42;15.80;;;3.07;;
4527;SDS011;62320;51.520;6.818;2023-02-24T06:28:52;14.73;;;2.77;;
4527;SDS011;62320;51.520;6.818;2023-02-24T06:38:54;13.00;;;2.90;;
4527;SDS011;62320;51.520;6.818;2023-02-24T06:48:56;8.18;;;2.10;;
4527;SDS011;62320;51.520;6.818;2023-02-24T06:59:01;9.40;;;3.00;;
4527;SDS011;62320;51.520;6.818;2023-02-24T07:09:06;12.53;;;2.37;;
4527;SDS011;62320;51.520;6.818;2023-02-24T07:19:09;8.95;;;1.50;;
4527;SDS011;62320;51.520;6.818;2023-02-24T07:29:14;13.17;;;1.90;;
4527;SDS011;62320;51.520;6.818;2023-02-24T07:39:17;6.97;;;1.90;;
4527;SDS011;62320;51.520;6.818;2023-02-24T07:49:20;8.75;;;2.53;;
4527;SDS011;62320;51.520;6.818;2023-02-24T07:59:27;12.13;;;2.90;;
4527;SDS011;62320;51.520;6.818;2023-02-24T08:09:33;11.37;;;2.90;;
4527;SDS011;62320;51.520;6.818;2023-02-24T08:19:47;10.15;;;1.80;;
4527;SDS011;62320;51.520;6.818;2023-02-24T08:29:51;9.27;;;1.25;;
4527;SDS011;62320;51.520;6.818;2023-02-24T08:40:00;11.43;;;1.60;;
4527;SDS011;62320;51.520;6.818;2023-02-24T08:50:05;6.87;;;1.80;;
4527;SDS011;62320;51.520;6.818;2023-02-24T09:00:07;10.05;;;1.83;;
4527;SDS011;62320;51.520;6.818;2023-02-24T09:10:14;11.27;;;1.70;;
4527;SDS011;62320;51.520;6.818;2023-02-24T09:20:19;6.10;;;1.50;;
4527;SDS011;62320;51.520;6.818;2023-02-24T09:30:27;9.63;;;1.88;;
4527;SDS011;62320;51.520;6.818;2023-02-24T09:40:38;11.10;;;2.00;;
4527;SDS011;62320;51.520;6.818;2023-02-24T09:50:40;11.77;;;2.87;;
4527;SDS011;62320;51.520;6.818;2023-02-24T10:11:44;8.25;;;2.63;;
4527;SDS011;62320;51.520;6.818;2023-02-24T10:22:09;6.20;;;2.20;;
4527;SDS011;62320;51.520;6.818;2023-02-24T10:32:31;10.13;;;2.60;;
4527;SDS011;62320;51.520;6.818;2023-02-24T10:42:35;5.70;;;1.75;;
4527;SDS011;62320;51.520;6.818;2023-02-24T10:52:44;13.80;;;3.67;;
4527;SDS011;62320;51.520;6.818;2023-02-24T11:03:06;8.17;;;2.47;;
4527;SDS011;62320;51.520;6.818;2023-02-24T11:13:13;10.27;;;2.55;;
4527;SDS011;62320;51.520;6.818;2023-02-24T11:23:45;12.33;;;3.40;;
4527;SDS011;62320;51.520;6.818;2023-02-24T11:44:09;15.70;;;3.92;;
4527;SDS011;62320;51.520;6.818;2023-02-24T11:54:19;10.73;;;3.50;;
4527;SDS011;62320;51.520;6.818;2023-02-24T12:04:37;10.90;;;4.50;;
4527;SDS011;62320;51.520;6.818;2023-02-24T12:25:20;16.42;;;5.00;;
4527;SDS011;62320;51.520;6.818;2023-02-24T12:55:49;15.63;;;5.45;;
4527;SDS011;62320;51.520;6.818;2023-02-24T13:06:25;16.90;;;6.30;;
4527;SDS011;62320;51.520;6.818;2023-02-24T13:16:30;20.77;;;6.17;;
4527;SDS011;62320;51.520;6.818;2023-02-24T13:26:33;19.05;;;6.03;;
4527;SDS011;62320;51.520;6.818;2023-02-24T13:36:34;20.35;;;7.43;;
4527;SDS011;62320;51.520;6.818;2023-02-24T13:46:57;21.73;;;7.13;;
4527;SDS011;62320;51.520;6.818;2023-02-24T14:07:28;11.43;;;5.32;;
4527;SDS011;62320;51.520;6.818;2023-02-24T14:17:34;17.70;;;7.40;;
4527;SDS011;62320;51.520;6.818;2023-02-24T14:27:37;11.33;;;4.57;;
4527;SDS011;62320;51.520;6.818;2023-02-24T14:37:39;16.33;;;5.50;;
4527;SDS011;62320;51.520;6.818;2023-02-24T14:47:42;12.07;;;4.63;;
4527;SDS011;62320;51.520;6.818;2023-02-24T14:57:49;10.60;;;4.13;;
4527;SDS011;62320;51.520;6.818;2023-02-24T15:07:56;14.82;;;6.75;;
4527;SDS011;62320;51.520;6.818;2023-02-24T15:18:02;12.82;;;6.32;;
4527;SDS011;62320;51.520;6.818;2023-02-24T15:28:23;14.47;;;5.80;;
4527;SDS011;62320;51.520;6.818;2023-02-24T15:38:33;14.87;;;5.53;;
4527;SDS011;62320;51.520;6.818;2023-02-24T15:48:37;13.52;;;5.45;;
4527;SDS011;62320;51.520;6.818;2023-02-24T15:58:43;12.17;;;4.17;;
4527;SDS011;62320;51.520;6.818;2023-02-24T16:08:45;17.77;;;6.33;;
4527;SDS011;62320;51.520;6.818;2023-02-24T16:18:49;11.77;;;4.75;;
4527;SDS011;62320;51.520;6.818;2023-02-24T16:28:54;9.90;;;3.57;;
4527;SDS011;62320;51.520;6.818;2023-02-24T16:38:57;9.50;;;2.53;;
4527;SDS011;62320;51.520;6.818;2023-02-24T16:48:59;10.10;;;2.22;;
4527;SDS011;62320;51.520;6.818;2023-02-24T16:59:00;9.63;;;2.20;;
4527;SDS011;62320;51.520;6.818;2023-02-24T17:09:02;10.93;;;2.07;;
4527;SDS011;62320;51.520;6.818;2023-02-24T17:19:04;8.37;;;2.20;;
4527;SDS011;62320;51.520;6.818;2023-02-24T17:29:05;10.35;;;2.88;;
4527;SDS011;62320;51.520;6.818;2023-02-24T17:39:07;13.93;;;2.30;;
4527;SDS011;62320;51.520;6.818;2023-02-24T17:49:08;11.87;;;2.23;;
4527;SDS011;62320;51.520;6.818;2023-02-24T17:59:10;8.85;;;1.58;;
4527;SDS011;62320;51.520;6.818;2023-02-24T18:09:11;5.17;;;0.90;;
4527;SDS011;62320;51.520;6.818;2023-02-24T18:19:13;4.30;;;1.20;;
4527;SDS011;62320;51.520;6.818;2023-02-24T18:29:14;5.32;;;1.00;;
4527;SDS011;62320;51.520;6.818;2023-02-24T18:39:16;4.85;;;0.95;;
4527;SDS011;62320;51.520;6.818;2023-02-24T18:49:17;4.77;;;0.83;;
4527;SDS011;62320;51.520;6.818;2023-02-24T18:59:19;6.07;;;1.00;;
4527;SDS011;62320;51.520;6.818;2023-02-24T19:09:20;5.70;;;1.10;;
4527;SDS011;62320;51.520;6.818;2023-02-24T19:19:22;8.00;;;1.80;;
4527;SDS011;62320;51.520;6.818;2023-02-24T19:29:24;5.10;;;1.03;;
4527;SDS011;62320;51.520;6.818;2023-02-24T19:39:28;7.63;;;1.55;;
4527;SDS011;62320;51.520;6.818;2023-02-24T19:49:29;6.30;;;1.33;;
4527;SDS011;62320;51.520;6.818;2023-02-24T19:59:31;7.07;;;1.20;;
4527;SDS011;62320;51.520;6.818;2023-02-24T20:09:32;8.48;;;1.35;;
4527;SDS011;62320;51.520;6.818;2023-02-24T20:19:34;12.57;;;1.80;;
4527;SDS011;62320;51.520;6.818;2023-02-24T20:29:35;10.50;;;1.40;;
4527;SDS011;62320;51.520;6.818;2023-02-24T20:39:37;9.47;;;1.67;;
4527;SDS011;62320;51.520;6.818;2023-02-24T20:49:39;7.47;;;2.03;;
4527;SDS011;62320;51.520;6.818;2023-02-24T20:59:41;11.20;;;2.63;;
4527;SDS011;62320;51.520;6.818;2023-02-24T21:09:54;10.67;;;2.20;;
4527;SDS011;62320;51.520;6.818;2023-02-24T21:19:56;7.55;;;1.75;;
4527;SDS011;62320;51.520;6.818;2023-02-24T21:29:57;14.17;;;2.70;;
4527;SDS011;62320;51.520;6.818;2023-02-24T21:39:59;12.87;;;2.33;;
4527;SDS011;62320;51.520;6.818;2023-02-24T21:50:01;7.70;;;1.88;;
4527;SDS011;62320;51.520;6.818;2023-02-24T22:00:04;9.68;;;2.05;;
4527;SDS011;62320;51.520;6.818;2023-02-24T22:10:18;10.43;;;1.70;;
4527;SDS011;62320;51.520;6.818;2023-02-24T22:20:22;10.57;;;2.17;;
4527;SDS011;62320;51.520;6.818;2023-02-24T22:30:24;13.10;;;1.75;;
4527;SDS011;62320;51.520;6.818;2023-02-24T22:40:25;7.83;;;1.50;;
4527;SDS011;62320;51.520;6.818;2023-02-24T22:50:26;6.37;;;1.27;;
4527;SDS011;62320;51.520;6.818;2023-02-24T23:00:28;9.60;;;1.35;;
4527;SDS011;62320;51.520;6.818;2023-02-24T23:10:29;9.10;;;1.50;;
4527;SDS011;62320;51.520;6.818;2023-02-24T23:20:31;5.83;;;1.07;;
4527;SDS011;62320;51.520;6.818;2023-02-24T23:30:32;7.43;;;1.40;;
4527;SDS011;62320;51.520;6.818;2023-02-24T23:40:39;11.77;;;2.33;;
4527;SDS011;62320;51.520;6.818;2023-02-24T23:50:51;8.43;;;1.37;;
